Latest Weather Observations for Mount Ginini

IDN60901

Issued at 3:41 am EST Monday 25 September 2017 (issued every 10 minutes, with the page automatically refreshed every 10 minutes)

About weather observations | Map of Canberra area stations | Latest observations for Canberra area | Other Formats
Station Details ID: 070349 Name: MOUNT GININI AWS Lat: -35.53 Lon: 148.77 Height: 1760.0 m
Data from the previous 72 hours. | See also: Recent months at Mount Ginini
Date/Time
EST
Temp
°C
App
Temp
°C
Dew
Point
°C
Rel
Hum
%
Delta-T
°C
Wind Press
QNH
hPa
Press
MSL
hPa
Rain since
9am
mm
Dir  Spd
km/h
Gust
km/h
Spd
kts
Gust
kts
25/03:30am 0.9 -6.3 -1.7 83 1.1 WSW 26 59 14 32 - - 0.0
25/03:17am 1.2 -6.3 -1.7 81 1.1 WSW 28 57 15 31 - - 0.0
25/03:00am 1.0 -5.5 -2.1 80 1.3 WSW 22 50 12 27 - - 0.0
25/02:30am 1.6 -5.3 -2.7 73 1.8 WSW 24 50 13 27 - - 0.0
25/02:00am 2.2 -6.3 -2.9 69 2.0 WSW 32 80 17 43 - - 0.0
25/01:52am 2.3 -5.4 -2.8 69 2.0 WSW 28 63 15 34 - - 0.0
25/01:30am 2.1 -4.9 -3.2 68 2.0 WSW 24 46 13 25 - - 0.0
25/01:00am 2.4 -5.3 -3.3 66 2.2 W 28 56 15 30 - - 0.0
25/12:30am 2.6 -5.1 -3.1 66 2.2 WSW 28 67 15 36 - - 0.0
25/12:12am 2.7 -5.0 -3.0 66 2.2 W 28 61 15 33 - - 0.0
25/12:00am 2.6 -4.7 -3.1 66 2.2 W 26 56 14 30 - - 0.0
 
Date/Time
EST
Temp
°C
App
Temp
°C
Dew
Point
°C
Rel
Hum
%
Delta-T
°C
Wind Press
QNH
hPa
Press
MSL
hPa
Rain since
9am
mm
Dir  Spd
km/h
Gust
km/h
Spd
kts
Gust
kts
24/11:34pm 2.9 -4.8 -3.0 65 2.3 WSW 28 52 15 28 - - 0.0
24/11:30pm 2.8 -4.5 -3.1 65 2.3 WSW 26 52 14 28 - - 0.0
24/11:15pm 3.0 -4.7 -3.1 64 2.4 WSW 28 50 15 27 - - 0.0
24/11:00pm 3.1 -4.2 -3.2 63 2.4 WSW 26 48 14 26 - - 0.0
24/10:30pm 3.5 -3.9 -4.0 58 2.9 W 26 54 14 29 - - 0.0
24/10:21pm 3.7 -4.1 -4.0 57 2.9 W 28 52 15 28 - - 0.0
24/10:00pm 4.0 -2.8 -4.9 52 3.3 W 22 46 12 25 - - 0.0
24/09:30pm 4.5 -1.9 -5.3 49 3.7 W 20 46 11 25 - - 0.0
24/09:00pm 5.0 -1.8 -5.1 48 3.8 W 22 48 12 26 - - 0.0
24/08:30pm 5.2 -1.6 -4.9 48 3.8 W 22 46 12 25 - - 0.0
24/08:00pm 5.5 -0.5 -3.3 53 3.5 W 19 35 10 19 - - 0.0
24/07:30pm 5.9 -1.1 -3.4 51 3.7 WNW 24 46 13 25 - - 0.0
24/07:08pm 6.2 -1.5 -3.2 51 3.8 WNW 28 57 15 31 - - 0.0
24/07:00pm 6.1 -0.8 -3.0 52 3.7 WNW 24 50 13 27 - - 0.0
24/06:41pm 6.2 -1.5 -2.7 53 3.6 WNW 28 61 15 33 - - 0.0
24/06:30pm 6.1 -0.8 -2.7 53 3.6 WNW 24 48 13 26 - - 0.0
24/06:17pm 6.3 -1.4 -2.8 52 3.7 WNW 28 57 15 31 - - 0.0
24/06:00pm 6.3 -1.0 -2.6 53 3.6 WNW 26 48 14 26 - - 0.0
24/05:30pm 6.4 -0.8 -2.2 54 3.5 WNW 26 57 14 31 - - 0.0
24/05:06pm 6.7 -0.9 -2.2 53 3.7 WNW 28 54 15 29 - - 0.0
24/05:00pm 6.6 -0.2 -1.8 55 3.5 WNW 24 43 13 23 - - 0.0
24/04:32pm 6.9 -0.6 -1.7 54 3.6 WNW 28 50 15 27 - - 0.0
24/04:30pm 6.8 -0.4 -1.8 54 3.6 WNW 26 50 14 27 - - 0.0
24/04:00pm 6.5 -1.4 -1.9 55 3.5 WNW 30 69 16 37 - - 0.0
24/03:30pm 7.1 -1.2 -1.8 53 3.7 WNW 32 63 17 34 - - 0.0
24/03:00pm 7.3 -1.1 -2.2 51 4.0 WNW 32 61 17 33 - - 0.0
24/02:30pm 7.9 -0.2 -0.1 57 3.5 WNW 32 61 17 33 - - 0.0
24/02:00pm 7.5 0.1 -0.7 56 3.5 WNW 28 52 15 28 - - 0.0
24/01:30pm 7.3 -0.9 -0.9 56 3.5 WNW 32 57 17 31 - - 0.0
24/01:00pm 6.8 -1.3 -0.6 59 3.2 WNW 32 56 17 30 - - 0.0
24/12:30pm 6.7 -1.5 -0.7 59 3.2 WNW 32 59 17 32 - - 0.0
24/12:00pm 7.2 -0.4 -2.5 50 4.0 W 28 63 15 34 - - 0.0
24/11:39am 7.3 -0.4 -3.0 48 4.2 WNW 28 63 15 34 - - 0.0
24/11:30am 7.7 0.4 -2.6 48 4.3 W 26 52 14 28 - - 0.0
24/11:03am 6.9 -0.8 -3.3 48 4.1 W 28 52 15 28 - - 0.0
24/11:00am 7.4 0.5 -2.6 49 4.1 W 24 52 13 28 - - 0.0
24/10:30am 7.0 0.8 -3.2 48 4.1 W 20 41 11 22 - - 0.0
24/10:00am 6.5 0.6 -0.7 60 3.1 WNW 20 39 11 21 - - 0.0
24/09:30am 4.7 -0.7 -1.3 65 2.5 WNW 17 32 9 17 - - 0.0
24/09:00am 4.0 -1.7 -1.0 70 2.1 WNW 19 37 10 20 - - 0.0
24/08:30am 3.9 -1.9 -0.1 75 1.7 W 20 39 11 21 - - 0.0
24/08:00am 3.2 -2.1 -0.3 78 1.5 W 17 33 9 18 - - 0.0
24/07:30am 3.0 -2.6 -0.3 79 1.4 W 19 37 10 20 - - 0.0
24/07:00am 3.3 -2.8 -3.7 60 2.7 W 19 43 10 23 - - 0.0
24/06:30am 3.0 -3.2 -3.1 64 2.4 WSW 20 39 11 21 - - 0.0
24/06:00am 3.0 -2.6 -2.7 66 2.2 W 17 32 9 17 - - 0.0
24/05:30am 3.6 -2.6 -3.4 60 2.7 W 20 37 11 20 - - 0.0
24/05:00am 4.0 -2.2 -3.5 58 2.9 W 20 48 11 26 - - 0.0
24/04:30am 4.9 -1.2 -4.1 52 3.5 W 19 37 10 20 - - 0.0
24/04:00am 5.8 -0.8 -7.1 39 4.7 WSW 20 43 11 23 - - 0.0
24/03:30am 6.7 0.3 -7.3 36 5.1 WSW 19 43 10 23 - - 0.0
24/03:00am 7.5 1.0 -6.2 37 5.2 WSW 20 46 11 25 - - 0.0
24/02:30am 7.7 1.7 -1.3 53 3.8 WSW 20 41 11 22 - - 0.0
24/02:00am 8.3 2.6 0.3 57 3.6 WSW 20 43 11 23 - - 0.0
24/01:30am 8.9 4.3 1.8 61 3.3 WSW 15 35 8 19 - - 0.0
24/01:00am 10.2 5.3 2.1 57 3.8 W 17 33 9 18 - - 0.0
24/12:30am 11.3 6.2 1.0 49 4.8 W 17 35 9 19 - - 0.0
24/12:00am 12.7 7.2 0.5 43 5.7 WNW 19 37 10 20 - - 0.0
 
Date/Time
EST
Temp
°C
App
Temp
°C
Dew
Point
°C
Rel
Hum
%
Delta-T
°C
Wind Press
QNH
hPa
Press
MSL
hPa
Rain since
9am
mm
Dir  Spd
km/h
Gust
km/h
Spd
kts
Gust
kts
23/11:30pm 13.3 7.7 0.0 40 6.1 W 19 41 10 22 - - 0.0
23/11:00pm 13.6 8.3 -0.4 38 6.4 W 17 33 9 18 - - 0.0
23/10:30pm 14.0 8.1 -0.8 36 6.8 W 20 37 11 20 - - 0.0
23/10:00pm 14.0 8.2 -1.6 34 7.0 W 19 37 10 20 - - 0.0
23/09:30pm 14.5 8.6 -2.0 32 7.4 W 19 35 10 19 - - 0.0
23/09:00pm 15.0 8.9 -2.4 30 7.7 NW 20 39 11 21 - - 0.0
23/08:30pm 15.3 8.8 -2.2 30 7.8 WNW 22 46 12 25 - - 0.0
23/08:12pm 16.3 4.6 -1.3 30 8.1 WNW 50 102 27 55 - - 0.0
23/08:04pm 16.8 6.8 -1.3 29 8.4 NW 41 93 22 50 - - 0.0
23/08:03pm 16.5 6.9 -1.6 29 8.3 NW 39 93 21 50 - - 0.0
23/08:00pm 16.2 7.7 -1.8 29 8.2 NW 33 61 18 33 - - 0.0
23/07:32pm 15.7 8.1 -2.3 29 8.1 NNW 28 67 15 36 - - 0.0
23/07:30pm 15.5 7.9 -2.4 29 8.0 NNW 28 48 15 26 - - 0.0
23/07:02pm 15.7 8.1 -2.3 29 8.1 NNW 28 61 15 33 - - 0.0
23/07:00pm 15.4 8.6 -2.1 30 7.9 NNW 24 52 13 28 - - 0.0
23/06:30pm 14.7 7.9 -1.8 32 7.4 NNW 24 46 13 25 - - 0.0
23/06:00pm 14.4 8.4 -1.2 34 7.1 NNW 20 37 11 20 - - 0.0
23/05:30pm 14.8 9.1 -0.9 34 7.2 N 19 39 10 21 - - 0.0
23/05:00pm 15.3 9.4 -0.9 33 7.5 N 20 43 11 23 - - 0.0
23/04:30pm 16.1 10.4 -0.6 32 7.8 N 19 43 10 23 - - 0.0
23/04:00pm 16.8 11.9 -0.4 31 8.1 NNW 15 28 8 15 - - 0.0
23/03:30pm 18.7 13.5 0.3 29 8.9 NW 17 33 9 18 - - 0.0
23/03:00pm 19.3 13.8 0.8 29 9.1 NW 19 37 10 20 - - 0.0
23/02:30pm 19.0 12.5 0.6 29 9.0 NW 24 44 13 24 - - 0.0
23/02:00pm 18.9 13.6 -0.5 27 9.3 NW 17 39 9 21 - - 0.0
23/01:30pm 18.9 13.2 -1.0 26 9.4 NW 19 35 10 19 - - 0.0
23/01:00pm 18.8 12.9 -0.6 27 9.2 NW 20 35 11 19 - - 0.0
23/12:30pm 18.3 11.9 -1.5 26 9.2 NW 22 41 12 22 - - 0.0
23/12:00pm 17.9 10.4 -1.3 27 9.0 NW 28 59 15 32 - - 0.0
23/11:34am 17.2 9.7 -1.4 28 8.6 NW 28 54 15 29 - - 0.0
23/11:30am 17.8 11.1 -0.9 28 8.8 NNW 24 48 13 26 - - 0.0
23/11:11am 17.1 9.7 -0.6 30 8.3 NNW 28 52 15 28 - - 0.0
23/11:00am 17.3 10.7 -0.4 30 8.4 NNW 24 43 13 23 - - 0.0
23/10:30am 16.4 9.6 -1.7 29 8.3 NNW 24 44 13 24 - - 0.0
23/10:00am 15.2 8.7 -2.7 29 7.9 NW 22 39 12 21 - - 0.0
23/09:30am 14.6 8.0 -3.7 28 7.9 NW 22 39 12 21 - - 0.0
23/09:00am 13.0 6.8 -4.6 29 7.3 WNW 19 32 10 17 - - 0.0
23/08:30am 12.7 7.2 -5.3 28 7.4 WNW 15 30 8 16 - - 0.0
23/08:00am 12.7 5.9 -4.9 29 7.3 WNW 22 50 12 27 - - 0.0
23/07:30am 11.6 4.2 -7.2 26 7.3 NW 24 39 13 21 - - 0.0
23/07:00am 10.9 2.8 -6.9 28 6.9 WNW 28 54 15 29 - - 0.0
23/06:39am 11.2 3.0 -7.6 26 7.2 NW 28 48 15 26 - - 0.0
23/06:30am 11.3 3.5 -8.0 25 7.3 NNW 26 50 14 27 - - 0.0
23/06:00am 11.1 2.8 -8.7 24 7.4 NW 28 52 15 28 - - 0.0
23/05:30am 11.0 2.8 -8.2 25 7.2 NW 28 50 15 27 - - 0.0
23/05:00am 11.1 2.4 -8.7 24 7.4 NW 30 50 16 27 - - 0.0
23/04:30am 11.2 3.0 -8.1 25 7.3 NW 28 57 15 31 - - 0.0
23/04:00am 10.6 2.0 -7.6 27 6.9 NW 30 56 16 30 - - 0.0
23/03:48am 10.5 2.3 -7.7 27 6.9 NW 28 48 15 26 - - 0.0
23/03:30am 10.4 3.0 -7.3 28 6.8 NW 24 39 13 21 - - 0.0
23/03:00am 10.5 3.5 -7.2 28 6.8 NW 22 44 12 24 - - 0.0
23/02:30am 10.9 3.5 -7.3 27 7.0 NW 24 41 13 22 - - 0.0
23/02:00am 10.9 3.9 -7.3 27 7.0 NNW 22 39 12 21 - - 0.0
23/01:30am 10.9 3.5 -6.9 28 6.9 NNW 24 43 13 23 - - 0.0
23/01:00am 10.6 3.3 -6.7 29 6.7 NNW 24 43 13 23 - - 0.0
23/12:30am 10.7 3.4 -6.1 30 6.6 NNW 24 46 13 25 - - 0.0
23/12:00am 10.9 4.0 -6.0 30 6.7 NNW 22 41 12 22 - - 0.0
 
Date/Time
EST
Temp
°C
App
Temp
°C
Dew
Point
°C
Rel
Hum
%
Delta-T
°C
Wind Press
QNH
hPa
Press
MSL
hPa
Rain since
9am
mm
Dir  Spd
km/h
Gust
km/h
Spd
kts
Gust
kts
22/11:30pm 10.7 3.8 -6.1 30 6.6 NNW 22 43 12 23 - - 0.0
22/11:00pm 10.6 4.1 -5.8 31 6.5 NNW 20 39 11 21 - - 0.0
22/10:30pm 10.1 3.7 -5.4 33 6.2 NNW 20 39 11 21 - - 0.0
22/10:00pm 10.1 3.7 -6.7 30 6.5 NNW 19 35 10 19 - - 0.0
22/09:30pm 9.9 4.0 -6.0 32 6.2 NNW 17 32 9 17 - - 0.0
22/09:00pm 9.9 4.0 -5.2 34 6.0 NNW 17 32 9 17 - - 0.0
22/08:30pm 9.5 4.1 -4.8 36 5.7 NNW 15 28 8 15 - - 0.0
22/08:00pm 9.9 4.5 -4.8 35 5.9 N 15 32 8 17 - - 0.0
22/07:30pm 9.6 4.1 -5.5 34 6.0 NNW 15 28 8 15 - - 0.0
22/07:00pm 10.0 4.9 -5.5 33 6.1 NNW 13 26 7 14 - - 0.0
22/06:30pm 9.8 4.4 -4.9 35 5.9 NNW 15 30 8 16 - - 0.0
22/06:00pm 10.1 5.1 -3.9 37 5.8 NNW 13 24 7 13 - - 0.0
22/05:30pm 11.0 5.3 -3.8 35 6.2 NW 17 30 9 16 - - 0.0
22/05:00pm 11.8 7.0 -2.8 36 6.3 NW 13 26 7 14 - - 0.0
22/04:30pm 14.0 8.8 -2.8 31 7.4 NW 15 28 8 15 - - 0.0
22/04:00pm 14.9 10.0 -3.0 29 7.9 WNW 13 28 7 15 - - 0.0
22/03:30pm 14.9 8.7 -4.4 26 8.2 WNW 19 33 10 18 - - 0.0
22/03:00pm 15.7 10.0 -3.7 26 8.5 NW 17 30 9 16 - - 0.0
22/02:30pm 15.2 8.7 -5.8 23 8.7 NW 20 33 11 18 - - 0.0
22/02:00pm 15.1 8.9 -4.8 25 8.4 NW 19 33 10 18 - - 0.0
22/01:30pm 15.6 10.6 -4.3 25 8.6 WNW 13 33 7 18 - - 0.0
22/01:00pm 14.3 8.1 -4.4 27 7.9 NW 19 32 10 17 - - 0.0
22/12:30pm 15.0 9.8 -2.9 29 7.9 WNW 15 26 8 14 - - 0.0
22/12:00pm 14.6 9.6 -4.2 27 8.0 WNW 13 26 7 14 - - 0.0
22/11:30am 14.1 8.0 -3.6 29 7.6 WNW 19 32 10 17 - - 0.0
22/11:00am 13.7 8.0 -4.0 29 7.5 WNW 17 32 9 17 - - 0.0
22/10:30am 13.0 6.9 -4.1 30 7.2 WNW 19 35 10 19 - - 0.0
22/10:00am 12.1 6.4 -4.1 32 6.8 WNW 17 30 9 16 - - 0.0
22/09:30am 11.3 5.0 -5.6 30 6.8 WNW 19 33 10 18 - - 0.0
22/09:00am 9.6 3.3 -6.3 32 6.2 WNW 19 32 10 17 - - 0.0
22/08:30am 9.6 3.6 -6.7 31 6.3 WNW 17 30 9 16 - - 0.0
22/08:00am 7.8 2.2 -6.7 35 5.4 WNW 15 26 8 14 - - 0.0
22/07:30am 7.4 1.4 -7.0 35 5.3 WNW 17 28 9 15 - - 0.0
22/07:00am 7.0 1.0 -7.0 36 5.2 WNW 17 30 9 16 - - 0.0
22/06:30am 6.6 0.6 -6.7 38 4.9 NW 17 28 9 15 - - 0.0
22/06:00am 6.6 0.3 -6.3 39 4.8 NW 19 32 10 17 - - 0.0
22/05:30am 6.8 0.5 -6.2 39 4.9 NW 19 35 10 19 - - 0.0
22/05:00am 6.4 0.5 -5.6 42 4.6 WNW 17 30 9 16 - - 0.0
22/04:30am 6.7 0.8 -5.3 42 4.6 WNW 17 28 9 15 - - 0.0
22/04:00am 6.9 0.1 -5.1 42 4.6 NW 22 41 12 22 - - 0.0

Latest Capital City Observations: Canberra | Sydney | Melbourne | Brisbane | Adelaide | Perth | Hobart | Darwin

Other Formats:

Comma delimited format used in spreadsheet applications
http://www.bom.gov.au/fwo/IDN60903/IDN60903.95925.axf

JavaScript Object Notation format (JSON) in row-major order
http://www.bom.gov.au/fwo/IDN60903/IDN60903.95925.json